Time;durP1;ratioP1;P1;durP2;ratioP2;P2;SDS_P1;SDS_P2;PMS_P1;PMS_P2;Temp;Humidity;BMP_temperature;BMP_pressure;BME280_temperature;BME280_humidity;BME280_pressure;Samples;Min_cycle;Max_cycle;Signal;HPM_P1;HPM_P2
2021/01/09 00:02:05;;;;;;;42.75;26.52;;;;;;;2.65;75.17;100247.42;2118540;81;33023;-66
2021/01/09 00:05:09;;;;;;;43.95;27.73;;;;;;;2.62;75.16;100248.80;2096534;81;28698;-67
2021/01/09 00:08:12;;;;;;;43.75;26.62;;;;;;;2.58;75.17;100251.92;2193739;81;27763;-67
2021/01/09 00:11:14;;;;;;;50.20;25.97;;;;;;;2.53;75.18;100253.79;2150604;81;28840;-67
2021/01/09 00:14:19;;;;;;;53.75;25.88;;;;;;;2.52;75.23;100253.37;2073607;81;30947;-67
2021/01/09 00:17:22;;;;;;;49.00;27.87;;;;;;;2.50;75.23;100256.02;2094697;82;33020;-67
2021/01/09 00:20:25;;;;;;;47.23;26.02;;;;;;;2.51;75.36;100253.80;2111815;82;28866;-67
2021/01/09 00:23:27;;;;;;;43.70;26.02;;;;;;;2.54;75.37;100259.04;2071579;82;27851;-67
2021/01/09 00:26:29;;;;;;;48.98;27.93;;;;;;;2.58;75.42;100258.09;2083058;82;28850;-67
2021/01/09 00:29:32;;;;;;;49.48;27.40;;;;;;;2.61;75.39;100257.16;2159184;82;31140;-67
2021/01/09 00:32:34;;;;;;;51.20;27.90;;;;;;;2.64;75.46;100259.75;2093060;83;33129;-67
2021/01/09 00:35:44;;;;;;;47.75;27.45;;;;;;;2.67;75.45;100258.81;2100042;83;30168;-71
2021/01/09 00:38:57;;;;;;;51.33;27.42;;;;;;;2.67;75.36;100261.03;2074534;84;27491;-70
2021/01/09 00:42:07;;;;;;;58.45;27.77;;;;;;;2.66;75.36;100268.54;2087579;83;29822;-70
2021/01/09 00:45:12;;;;;;;51.05;26.87;;;;;;;2.66;75.37;100267.65;2107613;83;30954;-67
2021/01/09 00:48:24;;;;;;;44.25;25.32;;;;;;;2.64;75.33;100273.45;2088577;83;34061;-69
2021/01/09 00:51:27;;;;;;;46.53;24.80;;;;;;;2.65;75.44;100277.84;2108714;83;28750;-65
2021/01/09 00:54:31;;;;;;;43.78;25.23;;;;;;;2.68;75.50;100275.11;2106934;83;27694;-65
2021/01/09 00:57:33;;;;;;;45.35;26.55;;;;;;;2.71;75.54;100278.59;2074745;84;28896;-66
2021/01/09 01:00:35;;;;;;;44.73;26.25;;;;;;;2.77;75.51;100280.69;2035835;83;30971;-66
2021/01/09 01:03:38;;;;;;;42.58;25.05;;;;;;;2.80;75.47;100280.64;2086546;83;33568;-66
2021/01/09 01:06:42;;;;;;;42.60;26.40;;;;;;;2.82;75.53;100283.67;2108726;83;28675;-66
2021/01/09 01:09:55;;;;;;;40.50;25.73;;;;;;;2.89;75.56;100291.08;2255592;77;27725;-66
2021/01/09 01:12:58;;;;;;;45.35;26.20;;;;;;;2.86;75.39;100293.77;2211019;79;27712;-66
2021/01/09 01:16:04;;;;;;;48.30;27.55;;;;;;;2.85;75.41;100296.85;2157770;79;28923;-66
2021/01/09 01:19:05;;;;;;;49.77;29.95;;;;;;;2.83;75.36;100290.71;2185157;80;31935;-66
2021/01/09 01:22:08;;;;;;;43.78;26.68;;;;;;;2.83;75.44;100289.85;2125518;79;32938;-66
2021/01/09 01:25:12;;;;;;;41.02;25.08;;;;;;;2.81;75.43;100291.65;2144765;79;28501;-66
2021/01/09 01:28:14;;;;;;;45.85;24.52;;;;;;;2.80;75.46;100290.79;2195384;79;27702;-67
2021/01/09 01:31:16;;;;;;;43.15;25.08;;;;;;;2.82;75.51;100300.87;2118076;79;28690;-66
2021/01/09 01:34:18;;;;;;;42.38;24.63;;;;;;;2.83;75.35;100303.08;2180096;79;32126;-67
2021/01/09 01:37:20;;;;;;;46.33;26.93;;;;;;;2.84;75.35;100296.89;2155459;81;33136;-66
2021/01/09 01:40:25;;;;;;;55.12;30.85;;;;;;;2.85;75.39;100306.11;2124134;81;28654;-67
2021/01/09 01:43:27;;;;;;;44.13;27.20;;;;;;;2.85;75.39;100302.14;2186333;80;28360;-66
2021/01/09 01:46:29;;;;;;;40.88;24.60;;;;;;;2.86;75.28;100301.70;2149140;80;28646;-66
2021/01/09 01:49:31;;;;;;;39.30;24.20;;;;;;;2.85;75.25;100303.93;2125897;80;30950;-66
2021/01/09 01:52:33;;;;;;;38.83;23.32;;;;;;;2.81;75.20;100307.09;2149552;81;34053;-66
2021/01/09 01:55:36;;;;;;;43.13;25.62;;;;;;;2.79;75.17;100301.38;2154641;80;28934;-67
2021/01/09 01:58:38;;;;;;;42.45;24.15;;;;;;;2.74;75.12;100308.94;2186475;80;27619;-66
2021/01/09 02:01:42;;;;;;;39.92;24.12;;;;;;;2.70;75.26;100313.88;2173596;80;29388;-66
2021/01/09 02:05:00;;;;;;;37.98;23.65;;;;;;;2.68;75.25;100307.74;2213096;80;32666;-66
2021/01/09 02:08:03;;;;;;;37.48;22.75;;;;;;;2.67;75.31;100313.04;2206168;80;32938;-66
2021/01/09 02:11:11;;;;;;;40.78;24.15;;;;;;;2.67;75.31;100313.93;2120631;81;28859;-66
2021/01/09 02:14:50;;;;;;;41.65;25.10;;;;;;;2.69;75.40;100313.89;2157795;81;27690;-67
2021/01/09 02:17:53;;;;;;;42.58;26.17;;;;;;;2.70;75.50;100308.59;2039175;86;28652;-67
2021/01/09 02:21:01;;;;;;;39.85;26.23;;;;;;;2.75;75.55;100313.80;2076970;83;30949;-67
2021/01/09 02:24:16;;;;;;;41.83;24.23;;;;;;;2.81;75.50;100301.80;2230862;77;27837;-66
2021/01/09 02:27:18;;;;;;;37.80;23.40;;;;;;;2.77;75.43;100306.71;2153641;81;27771;-66
2021/01/09 02:30:24;;;;;;;41.45;24.70;;;;;;;2.77;75.35;100310.68;2120319;81;29562;-66
2021/01/09 02:33:26;;;;;;;39.60;23.90;;;;;;;2.73;75.26;100315.13;2214659;80;31213;-67
2021/01/09 02:36:28;;;;;;;39.90;23.57;;;;;;;2.72;75.31;100315.16;2155584;80;33193;-66
2021/01/09 02:39:32;;;;;;;39.53;23.80;;;;;;;2.68;75.30;100313.03;2141686;81;28611;-66
2021/01/09 02:42:34;;;;;;;38.50;22.75;;;;;;;2.67;75.40;100313.93;2149768;80;27852;-66
2021/01/09 02:45:37;;;;;;;38.38;23.00;;;;;;;2.68;75.39;100309.50;2149548;81;28896;-66
2021/01/09 02:48:39;;;;;;;36.45;22.22;;;;;;;2.69;75.38;100315.22;2159341;80;31174;-67
2021/01/09 02:51:41;;;;;;;39.60;24.32;;;;;;;2.68;75.37;100313.03;2166388;80;33065;-66
2021/01/09 02:54:43;;;;;;;37.38;22.77;;;;;;;2.67;75.35;100308.64;2174231;81;29903;-67
2021/01/09 02:57:45;;;;;;;39.50;23.73;;;;;;;2.68;75.37;100310.82;2157458;81;27588;-67
2021/01/09 03:00:48;;;;;;;39.58;23.67;;;;;;;2.64;75.26;100313.12;2125101;81;28158;-67
2021/01/09 03:03:50;;;;;;;41.92;24.23;;;;;;;2.61;75.28;100309.20;2158458;80;31152;-67
2021/01/09 03:06:52;;;;;;;38.28;23.52;;;;;;;2.57;75.29;100302.63;2147380;80;33143;-68
2021/01/09 03:09:54;;;;;;;39.48;23.52;;;;;;;2.54;75.19;100307.96;2134871;80;28886;-67
2021/01/09 03:12:56;;;;;;;42.33;24.40;;;;;;;2.48;75.13;100308.08;2185881;80;27776;-67
2021/01/09 03:15:59;;;;;;;38.95;22.00;;;;;;;2.41;75.27;100308.60;2185401;80;28437;-66
2021/01/09 03:19:01;;;;;;;42.58;24.10;;;;;;;2.38;75.35;100304.71;2174035;80;30401;-67
2021/01/09 03:22:04;;;;;;;39.58;23.55;;;;;;;2.41;75.48;100303.78;2148206;80;32696;-67
2021/01/09 03:25:08;;;;;;;38.13;23.10;;;;;;;2.38;75.42;100306.03;2093014;83;28950;-66
2021/01/09 03:28:13;;;;;;;46.42;23.60;;;;;;;2.36;75.47;100308.25;2122114;81;27751;-67
2021/01/09 03:31:15;;;;;;;;;;;;;;;2.35;75.57;100310.04;2144432;81;28835;-67
2021/01/09 03:34:17;;;;;;;40.98;24.87;;;;;;;2.36;75.65;100307.83;2152157;81;31352;-67
2021/01/09 03:37:19;;;;;;;36.35;23.35;;;;;;;2.35;75.63;100312.69;2150489;81;34032;-66
2021/01/09 03:40:21;;;;;;;38.90;23.50;;;;;;;2.35;75.65;100314.44;2087824;83;28859;-67
2021/01/09 03:43:24;;;;;;;40.00;24.32;;;;;;;2.34;75.67;100316.66;2102993;83;27706;-67
2021/01/09 03:46:26;;;;;;;38.60;23.98;;;;;;;2.33;75.78;100315.80;2129687;81;28533;-66
2021/01/09 03:49:28;;;;;;;39.63;24.15;;;;;;;2.32;75.67;100318.02;2151195;81;31359;-64
2021/01/09 03:52:30;;;;;;;35.52;22.52;;;;;;;2.31;75.67;100324.19;2151046;81;33128;-65
2021/01/09 03:55:32;;;;;;;41.35;24.15;;;;;;;2.32;75.73;100323.30;2150980;81;29369;-65
2021/01/09 03:58:34;;;;;;;37.55;23.55;;;;;;;2.36;75.89;100323.69;2151310;81;27719;-66
2021/01/09 04:01:36;;;;;;;38.40;23.80;;;;;;;2.38;75.86;100328.50;2130999;81;28616;-66
2021/01/09 04:04:38;;;;;;;36.35;22.87;;;;;;;2.39;75.85;100329.36;2091390;83;30973;-65
2021/01/09 04:07:40;;;;;;;36.58;23.18;;;;;;;2.39;75.91;100330.25;2126226;81;33176;-65
2021/01/09 04:10:42;;;;;;;36.33;22.35;;;;;;;2.42;75.90;100334.61;2136121;83;28932;-66
2021/01/09 04:13:45;;;;;;;38.17;22.73;;;;;;;2.39;75.84;100329.36;2110232;83;27727;-65
2021/01/09 04:16:47;;;;;;;39.60;23.40;;;;;;;2.35;75.83;100334.27;2107425;83;28610;-66
2021/01/09 04:19:49;;;;;;;32.63;21.35;;;;;;;2.32;75.83;100339.63;2069372;83;31171;-66
2021/01/09 04:22:52;;;;;;;40.38;23.83;;;;;;;2.25;75.90;100341.02;2124068;82;33665;-65
2021/01/09 04:25:54;;;;;;;39.73;22.32;;;;;;;2.19;75.94;100350.35;2092286;83;29063;-66
2021/01/09 04:28:56;;;;;;;35.92;21.27;;;;;;;2.18;76.13;100353.89;2090163;84;28184;-65
2021/01/09 04:31:58;;;;;;;33.98;19.50;;;;;;;2.17;76.10;100357.89;2091763;84;28880;-65
2021/01/09 04:35:02;;;;;;;30.77;18.75;;;;;;;2.18;76.26;100358.31;2110955;84;31150;-65
2021/01/09 04:38:04;;;;;;;28.07;17.60;;;;;;;2.18;76.16;100364.92;2090904;84;33756;-65
2021/01/09 04:41:07;;;;;;;28.42;16.70;;;;;;;2.17;76.20;100363.17;2060739;82;29624;-66
2021/01/09 04:44:12;;;;;;;28.60;17.52;;;;;;;2.18;76.31;100371.53;2083063;82;27802;-65
2021/01/09 04:47:15;;;;;;;24.47;14.63;;;;;;;2.18;76.22;100371.53;2091527;82;28609;-66
2021/01/09 04:50:17;;;;;;;23.90;15.65;;;;;;;2.17;76.19;100371.10;2090468;84;31478;-66
2021/01/09 04:53:20;;;;;;;24.75;14.87;;;;;;;2.17;76.25;100366.67;2098608;82;33566;-66
2021/01/09 04:56:22;;;;;;;23.98;15.20;;;;;;;2.18;76.25;100376.81;2104437;82;28869;-66
2021/01/09 04:59:25;;;;;;;23.45;14.40;;;;;;;2.16;76.24;100378.14;2080648;84;27655;-65
2021/01/09 05:02:27;;;;;;;24.30;15.35;;;;;;;2.15;76.28;100383.46;2074360;84;29558;-65
2021/01/09 05:05:29;;;;;;;19.82;13.95;;;;;;;2.16;76.29;100386.53;2141623;82;32482;-66
2021/01/09 05:08:31;;;;;;;22.62;13.43;;;;;;;2.16;76.31;100391.81;2103158;82;33067;-66
2021/01/09 05:11:40;;;;;;;20.23;12.98;;;;;;;2.11;76.18;100388.78;2125372;82;28860;-66
2021/01/09 05:14:42;;;;;;;22.40;13.38;;;;;;;2.08;76.20;100389.28;2115754;83;27813;-66
2021/01/09 05:17:44;;;;;;;21.27;12.98;;;;;;;2.11;76.41;100396.70;2078659;84;28837;-66
2021/01/09 05:20:47;;;;;;;22.50;13.80;;;;;;;2.12;76.38;100397.13;2095268;82;32207;-66
2021/01/09 05:24:05;;;;;;;20.85;13.60;;;;;;;2.10;76.25;100402.02;2090565;82;33131;-66
2021/01/09 05:27:07;;;;;;;21.77;13.43;;;;;;;2.10;76.36;100408.63;2088627;82;28926;-66
2021/01/09 05:30:11;;;;;;;24.43;14.60;;;;;;;2.09;76.27;100408.20;2077142;84;27752;-66
2021/01/09 05:33:13;;;;;;;21.42;14.33;;;;;;;2.06;76.26;100415.73;2111125;83;28898;-66
2021/01/09 05:36:16;;;;;;;18.92;13.18;;;;;;;2.05;76.33;100423.66;2050591;83;31195;-66
2021/01/09 05:39:18;;;;;;;21.42;13.90;;;;;;;2.03;76.29;100424.13;2073931;82;33407;-66
2021/01/09 05:42:24;;;;;;;18.67;12.13;;;;;;;1.99;76.07;100426.40;2113551;82;29804;-66
2021/01/09 05:45:26;;;;;;;17.05;11.12;;;;;;;1.95;76.14;100429.08;2091661;82;27690;-67
2021/01/09 05:48:30;;;;;;;19.57;11.30;;;;;;;1.92;76.13;100430.86;2126872;82;28828;-67
2021/01/09 05:51:35;;;;;;;14.98;10.65;;;;;;;1.94;76.20;100431.28;2081059;84;31046;-67
2021/01/09 05:54:37;;;;;;;;;;;;;;;1.95;76.08;100435.68;2070729;84;33521;-67
2021/01/09 05:57:42;;;;;;;14.93;10.50;;;;;;;1.99;76.07;100439.15;2058680;84;29061;-66
2021/01/09 06:00:45;;;;;;;14.38;9.50;;;;;;;1.99;76.02;100439.15;2093677;82;27660;-66
2021/01/09 06:04:06;;;;;;;13.58;9.30;;;;;;;2.00;75.89;100446.61;2119661;82;28812;-67
2021/01/09 06:07:25;;;;;;;14.75;9.38;;;;;;;2.01;75.90;100454.55;2094747;82;31141;-67
2021/01/09 06:10:28;;;;;;;13.83;9.88;;;;;;;2.00;75.77;100458.08;2071709;84;33130;-67
2021/01/09 06:13:31;;;;;;;12.60;9.13;;;;;;;1.96;75.72;100462.53;2111054;84;28647;-67
2021/01/09 06:16:36;;;;;;;13.93;9.85;;;;;;;1.92;75.46;100462.12;2102634;83;27785;-67
2021/01/09 06:19:39;;;;;;;13.43;10.00;;;;;;;1.89;75.51;100470.55;2092792;84;29794;-66
2021/01/09 06:22:41;;;;;;;14.03;9.45;;;;;;;1.83;75.36;100468.81;2089680;83;32479;-67
2021/01/09 06:25:43;;;;;;;13.20;9.68;;;;;;;1.76;75.39;100470.66;2109705;83;33976;-67
2021/01/09 06:28:56;;;;;;;10.60;8.58;;;;;;;1.73;75.48;100482.59;2130148;82;29891;-67
2021/01/09 06:32:05;;;;;;;9.75;7.70;;;;;;;1.72;75.52;100481.27;2158053;82;27679;-67
2021/01/09 06:35:09;;;;;;;9.78;7.67;;;;;;;1.69;75.38;100487.90;2109948;83;28633;-67
2021/01/09 06:38:12;;;;;;;11.20;6.97;;;;;;;1.68;75.38;100497.60;2100731;83;31444;-65
2021/01/09 06:41:17;;;;;;;7.50;5.90;;;;;;;1.65;75.05;100501.16;2133055;83;34052;-65
2021/01/09 06:44:19;;;;;;;;;;;;;;;1.62;75.11;100505.57;2100303;83;28657;-65
2021/01/09 06:47:29;;;;;;;6.85;5.50;;;;;;;1.56;74.84;100509.61;2132896;82;27685;-65
2021/01/09 06:50:33;;;;;;;10.60;5.15;;;;;;;1.51;74.66;100509.62;2115979;83;28831;-65
2021/01/09 06:53:35;;;;;;;8.28;5.92;;;;;;;1.39;74.47;100510.63;2109780;83;32251;-65
2021/01/09 06:56:37;;;;;;;7.78;5.97;;;;;;;1.33;74.53;100516.81;2090464;82;34043;-66
2021/01/09 06:59:42;;;;;;;10.48;7.50;;;;;;;1.29;74.53;100520.39;2135186;82;28656;-66
2021/01/09 07:02:50;;;;;;;16.45;11.57;;;;;;;1.26;74.68;100527.00;2133535;83;27795;-66
2021/01/09 07:05:54;;;;;;;16.87;10.78;;;;;;;1.24;74.77;100527.45;2111523;82;28591;-65
2021/01/09 07:08:57;;;;;;;7.80;5.92;;;;;;;1.24;74.68;100537.15;2139959;82;30971;-66
2021/01/09 07:12:00;;;;;;;7.70;6.55;;;;;;;1.23;74.66;100536.26;2109593;83;33164;-66
2021/01/09 07:15:08;;;;;;;8.55;5.75;;;;;;;1.21;74.72;100539.34;2116015;82;28866;-66
2021/01/09 07:18:12;;;;;;;9.98;6.70;;;;;;;1.23;74.75;100546.81;2116096;83;27702;-67
2021/01/09 07:21:19;;;;;;;9.03;6.35;;;;;;;1.25;74.80;100543.72;2084493;83;28632;-67
2021/01/09 07:24:22;;;;;;;8.53;7.22;;;;;;;1.29;74.84;100549.42;2105337;84;31143;-67
2021/01/09 07:27:35;;;;;;;9.83;7.72;;;;;;;1.32;74.72;100553.79;2068357;84;32145;-68
2021/01/09 07:30:37;;;;;;;9.00;7.17;;;;;;;1.35;74.79;100562.55;2077871;84;29381;-68
2021/01/09 07:33:43;;;;;;;9.98;7.40;;;;;;;1.40;74.77;100566.50;2108766;84;27818;-68
2021/01/09 07:36:47;;;;;;;10.55;8.08;;;;;;;1.43;74.83;100567.77;2058896;84;27840;-67
2021/01/09 07:39:56;;;;;;;7.70;6.67;;;;;;;1.46;74.79;100573.50;2081154;82;30701;-68
2021/01/09 07:42:58;;;;;;;10.00;7.53;;;;;;;1.48;74.75;100570.41;2115412;83;33071;-68
2021/01/09 07:46:01;;;;;;;11.53;8.05;;;;;;;1.52;74.80;100576.06;2095814;83;29182;-67
2021/01/09 07:49:04;;;;;;;11.55;9.00;;;;;;;1.57;74.75;100577.38;2117570;81;27780;-67
2021/01/09 07:52:08;;;;;;;11.53;8.40;;;;;;;1.62;74.83;100580.41;2091646;83;29588;-67
2021/01/09 07:55:17;;;;;;;90.38;41.75;;;;;;;1.67;74.87;100579.89;2083323;84;30948;-67
2021/01/09 07:58:44;;;;;;;63.80;35.03;;;;;;;1.71;74.62;100579.87;2101380;84;33275;-67
2021/01/09 08:01:46;;;;;;;60.08;35.40;;;;;;;1.74;74.70;100583.82;2082415;84;30166;-68
2021/01/09 08:04:49;;;;;;;34.63;22.62;;;;;;;1.77;74.71;100589.94;2069495;85;27694;-67
2021/01/09 08:07:54;;;;;;;30.00;21.00;;;;;;;1.79;74.43;100592.59;2068153;85;28614;-68
2021/01/09 08:10:56;;;;;;;15.78;11.70;;;;;;;1.80;74.54;100596.53;2060126;85;30838;-67
2021/01/09 08:14:02;;;;;;;12.60;10.10;;;;;;;1.84;74.40;100595.19;2038404;85;33026;-68
2021/01/09 08:20:24;;;;;;;8.37;6.90;;;;;;;1.91;74.21;100596.44;2296346;76;27750;-68
2021/01/09 08:23:28;;;;;;;10.53;7.62;;;;;;;1.89;74.02;100601.31;2253611;78;27810;-67
2021/01/09 08:26:32;;;;;;;17.30;10.55;;;;;;;1.90;74.23;100599.97;2170761;78;28833;-68
2021/01/09 08:29:35;;;;;;;9.53;7.08;;;;;;;1.92;74.02;100606.54;2196468;77;32059;-68
2021/01/09 08:32:37;;;;;;;33.92;19.42;;;;;;;1.94;73.77;100605.66;2180617;77;32927;-68
2021/01/09 08:35:48;;;;;;;15.78;11.05;;;;;;;1.95;74.02;100606.09;2242437;77;28525;-68
2021/01/09 08:38:50;;;;;;;59.42;28.57;;;;;;;1.99;73.75;100609.58;2187666;77;27711;-68
2021/01/09 08:41:53;;;;;;;75.17;31.48;;;;;;;2.00;73.72;100619.68;2231305;77;29575;-68
2021/01/09 08:44:55;;;;;;;80.00;38.23;;;;;;;2.03;73.61;100620.98;2235570;77;31199;-68
2021/01/09 08:47:57;;;;;;;23.20;15.00;;;;;;;2.05;73.65;100624.48;2148096;81;32935;-68
2021/01/09 08:51:10;;;;;;;22.80;14.40;;;;;;;2.06;73.67;100628.45;2137277;81;28973;-67
2021/01/09 08:54:14;;;;;;;22.05;15.00;;;;;;;2.08;73.69;100627.11;2161200;80;27783;-68
2021/01/09 08:57:17;;;;;;;31.12;17.90;;;;;;;2.11;73.70;100628.41;2185306;80;28833;-68
2021/01/09 09:00:20;;;;;;;40.45;22.55;;;;;;;2.16;73.85;100629.68;2148335;80;31037;-68
2021/01/09 09:03:23;;;;;;;19.37;13.00;;;;;;;2.24;73.82;100627.39;2213932;78;33122;-68
2021/01/09 09:06:26;;;;;;;38.58;20.45;;;;;;;2.31;73.51;100631.30;2171570;80;28920;-68
2021/01/09 09:09:29;;;;;;;20.95;13.08;;;;;;;2.35;73.48;100631.25;2124622;80;27706;-68
2021/01/09 09:12:32;;;;;;;21.00;13.18;;;;;;;2.42;73.38;100640.85;2151977;80;28938;-69
2021/01/09 09:15:34;;;;;;;18.87;11.93;;;;;;;2.49;73.49;100635.52;2147128;81;31384;-68
2021/01/09 09:18:37;;;;;;;14.98;9.43;;;;;;;2.55;73.25;100632.81;2180752;81;33205;-68
2021/01/09 09:21:43;;;;;;;15.03;9.88;;;;;;;2.55;73.10;100637.64;2151087;79;28734;-69
2021/01/09 09:24:46;;;;;;;16.00;10.40;;;;;;;2.57;73.09;100635.86;2149258;81;28185;-69
2021/01/09 09:27:50;;;;;;;10.23;7.15;;;;;;;2.64;73.32;100634.48;2067301;84;27784;-68
2021/01/09 09:30:55;;;;;;;14.78;9.93;;;;;;;2.69;73.00;100632.63;2094196;82;30961;-68
2021/01/09 09:34:11;;;;;;;17.55;11.08;;;;;;;2.73;73.04;100631.71;2098970;82;34041;-69
2021/01/09 09:37:13;;;;;;;24.05;13.50;;;;;;;2.78;72.97;100632.54;2146226;81;28828;-67
2021/01/09 09:40:31;;;;;;;21.57;11.95;;;;;;;2.80;72.89;100637.37;2089767;82;27677;-68
2021/01/09 09:43:33;;;;;;;26.50;14.18;;;;;;;2.80;72.63;100628.54;2111245;84;28836;-67
2021/01/09 09:46:42;;;;;;;16.85;9.68;;;;;;;2.83;72.59;100628.05;2114496;81;30935;-67
2021/01/09 09:49:46;;;;;;;25.12;13.72;;;;;;;2.86;72.59;100629.34;2104878;81;33875;-67
2021/01/09 09:53:02;;;;;;;27.60;14.18;;;;;;;2.96;72.66;100626.59;2188366;81;28852;-67
2021/01/09 09:56:19;;;;;;;16.82;10.68;;;;;;;3.05;72.76;100629.11;2148445;82;27745;-67
2021/01/09 09:59:28;;;;;;;20.43;10.38;;;;;;;3.12;72.56;100628.14;2177573;81;28617;-65
2021/01/09 10:02:30;;;;;;;15.83;11.28;;;;;;;3.19;72.37;100628.93;2168753;81;31237;-66
2021/01/09 10:05:32;;;;;;;13.28;8.98;;;;;;;3.25;72.45;100631.94;2200883;79;33054;-66
2021/01/09 10:08:34;;;;;;;65.15;26.68;;;;;;;3.32;72.46;100630.50;2136726;81;28869;-66
2021/01/09 10:11:36;;;;;;;25.65;13.32;;;;;;;3.32;71.95;100625.20;2148958;81;27795;-67
2021/01/09 10:14:39;;;;;;;84.65;31.90;;;;;;;3.33;72.17;100624.31;2150370;79;28838;-66
2021/01/09 10:17:41;;;;;;;38.73;17.35;;;;;;;3.38;71.94;100620.27;2177767;79;31217;-66
2021/01/09 10:20:43;;;;;;;33.50;16.00;;;;;;;3.40;71.76;100620.22;2147303;80;34485;-66
2021/01/09 10:23:46;;;;;;;37.25;16.65;;;;;;;3.40;71.62;100614.50;2176831;80;28959;-66
2021/01/09 10:26:48;;;;;;;30.27;15.20;;;;;;;3.40;71.61;100613.61;2115786;80;27666;-67
2021/01/09 10:29:50;;;;;;;55.67;22.65;;;;;;;3.44;71.94;100602.97;2122924;81;28614;-67
2021/01/09 10:32:52;;;;;;;36.55;16.52;;;;;;;3.49;71.65;100605.53;2165016;80;31188;-60
2021/01/09 10:35:55;;;;;;;59.25;27.55;;;;;;;3.53;71.29;100603.70;2139020;80;34106;-60
2021/01/09 10:38:58;;;;;;;31.65;18.10;;;;;;;3.55;71.30;100600.16;2152426;80;27845;-61
2021/01/09 10:42:01;;;;;;;34.53;19.48;;;;;;;3.57;71.13;100606.28;2186447;80;28193;-60
2021/01/09 10:45:06;;;;;;;42.65;20.57;;;;;;;3.59;71.11;100603.63;2141423;80;29965;-61
2021/01/09 10:48:10;;;;;;;15.05;9.50;;;;;;;3.61;70.87;100607.98;2172517;80;31222;-60
2021/01/09 10:51:21;;;;;;;17.02;10.00;;;;;;;3.59;70.53;100605.81;2180777;80;33096;-61
2021/01/09 10:54:23;;;;;;;17.15;11.40;;;;;;;3.61;70.28;100608.45;2182007;80;28904;-61
2021/01/09 10:57:26;;;;;;;17.00;10.63;;;;;;;3.63;70.31;100611.49;2141195;80;27638;-61
2021/01/09 11:00:29;;;;;;;24.12;11.48;;;;;;;3.68;70.13;100610.55;2169897;80;28886;-61
2021/01/09 11:03:32;;;;;;;31.05;14.93;;;;;;;3.68;70.14;100612.73;2151106;80;30939;-61
2021/01/09 11:06:35;;;;;;;15.98;10.63;;;;;;;3.66;70.20;100617.18;2163421;80;34054;-60
2021/01/09 11:09:37;;;;;;;22.70;12.45;;;;;;;3.65;69.99;100613.67;2199269;80;29850;-60
2021/01/09 11:12:40;;;;;;;16.25;11.15;;;;;;;3.62;70.18;100614.17;2122779;80;27742;-59
2021/01/09 11:15:48;;;;;;;20.65;11.50;;;;;;;3.61;70.17;100611.96;2166141;80;28852;-60
2021/01/09 11:18:52;;;;;;;14.87;9.35;;;;;;;3.63;69.91;100608.84;2146356;80;32605;-60
2021/01/09 11:22:02;;;;;;;27.90;14.47;;;;;;;3.61;69.42;100606.66;2137842;80;32719;-60
2021/01/09 11:25:06;;;;;;;18.02;10.82;;;;;;;3.58;69.34;100605.38;2081515;81;29627;-59
2021/01/09 11:28:09;;;;;;;14.25;9.45;;;;;;;3.60;69.77;100607.56;2112475;81;27737;-60
2021/01/09 11:31:12;;;;;;;23.30;14.00;;;;;;;3.64;69.73;100603.11;2163451;80;28892;-61
2021/01/09 11:34:16;;;;;;;59.40;24.98;;;;;;;3.68;69.79;100594.66;2163938;80;31148;-60
2021/01/09 11:37:24;;;;;;;22.05;14.03;;;;;;;3.74;69.52;100597.18;2099355;83;32942;-61
2021/01/09 11:40:27;;;;;;;18.70;11.93;;;;;;;3.71;68.68;100602.09;2160154;80;28884;-63
2021/01/09 11:43:30;;;;;;;23.67;15.25;;;;;;;3.66;68.83;100593.33;2121860;83;27763;-63
2021/01/09 11:46:34;;;;;;;23.12;13.32;;;;;;;3.61;68.52;100593.41;2138097;81;29992;-62
2021/01/09 11:49:41;;;;;;;17.02;11.33;;;;;;;3.61;68.68;100592.55;2148760;80;31611;-63
2021/01/09 11:52:43;;;;;;;23.47;13.83;;;;;;;3.60;68.80;100601.41;2130230;80;33009;-62
2021/01/09 11:55:50;;;;;;;19.77;12.53;;;;;;;3.59;68.79;100597.86;2111489;81;29569;-61
2021/01/09 11:58:52;;;;;;;23.27;13.03;;;;;;;3.58;69.04;100605.84;2133829;81;28238;-62
2021/01/09 12:01:55;;;;;;;23.90;12.68;;;;;;;3.59;68.73;100611.57;2161168;80;29383;-62
2021/01/09 12:04:58;;;;;;;24.67;13.48;;;;;;;3.54;68.08;100614.30;2139048;80;31179;-64
2021/01/09 12:08:02;;;;;;;27.25;15.43;;;;;;;3.50;68.69;100608.61;2091021;81;33164;-62
2021/01/09 12:11:04;;;;;;;27.32;14.50;;;;;;;3.48;68.26;100611.27;2164627;80;28640;-62
2021/01/09 12:14:07;;;;;;;17.17;9.23;;;;;;;3.47;68.07;100616.60;2125507;80;28335;-61
2021/01/09 12:17:09;;;;;;;46.85;22.32;;;;;;;3.44;68.03;100621.51;2123633;80;28678;-61
2021/01/09 12:20:15;;;;;;;24.95;13.40;;;;;;;3.46;68.30;100621.47;2118524;81;31698;-60
2021/01/09 12:23:17;;;;;;;23.85;11.50;;;;;;;3.46;68.10;100619.72;2158390;80;33942;-62
2021/01/09 12:26:20;;;;;;;26.37;15.40;;;;;;;3.44;67.61;100623.27;2091500;81;29624;-61
2021/01/09 12:29:23;;;;;;;22.42;11.00;;;;;;;3.40;68.24;100622.44;2110850;80;27705;-59
2021/01/09 12:32:26;;;;;;;25.70;12.53;;;;;;;3.40;67.94;100625.52;2151585;80;28828;-61
2021/01/09 12:35:28;;;;;;;28.10;14.55;;;;;;;3.37;67.71;100622.95;2110976;80;31408;-62
2021/01/09 12:38:33;;;;;;;13.45;8.43;;;;;;;3.32;67.76;100623.87;2157236;79;33154;-61
2021/01/09 12:41:38;;;;;;;10.98;6.87;;;;;;;3.30;67.73;100620.84;2114101;81;28879;-61
2021/01/09 12:44:41;;;;;;;13.55;7.50;;;;;;;3.24;67.57;100621.77;2156487;80;27728;-61
2021/01/09 12:47:47;;;;;;;14.50;9.03;;;;;;;3.21;67.40;100620.95;2088307;81;28726;-62
2021/01/09 12:50:50;;;;;;;14.38;8.90;;;;;;;3.18;67.47;100621.88;2182448;80;32496;-63
2021/01/09 12:53:52;;;;;;;17.02;11.60;;;;;;;3.15;67.37;100618.80;2151003;80;33991;-64
2021/01/09 12:56:55;;;;;;;21.27;12.55;;;;;;;3.12;67.22;100616.23;2091405;81;28805;-64
2021/01/09 12:59:57;;;;;;;17.42;10.58;;;;;;;3.08;67.48;100616.27;2116397;80;27776;-66
2021/01/09 13:03:00;;;;;;;10.85;7.50;;;;;;;3.04;67.16;100618.09;2115820;81;29245;-65
2021/01/09 13:06:03;;;;;;;14.60;9.00;;;;;;;3.03;67.55;100618.55;2101995;81;31049;-63
2021/01/09 13:09:07;;;;;;;16.48;8.35;;;;;;;3.10;67.85;100611.83;2117319;81;33961;-63
2021/01/09 13:12:10;;;;;;;20.27;11.60;;;;;;;3.16;67.72;100617.91;2116741;81;28407;-63
2021/01/09 13:15:14;;;;;;;20.80;12.10;;;;;;;3.18;67.48;100617.91;2150413;80;27861;-63
2021/01/09 13:18:16;;;;;;;17.40;10.63;;;;;;;3.22;67.67;100635.52;2128305;80;28828;-64
2021/01/09 13:21:19;;;;;;;22.67;12.53;;;;;;;3.21;67.34;100637.73;2178187;80;31214;-63
2021/01/09 13:24:23;;;;;;;10.58;7.05;;;;;;;3.20;67.38;100633.33;2142301;80;33126;-64
2021/01/09 13:27:27;;;;;;;22.75;11.43;;;;;;;3.17;67.03;100636.02;2114491;81;30162;-64
2021/01/09 13:30:29;;;;;;;20.90;10.93;;;;;;;3.14;67.24;100634.30;2162319;79;27643;-64
2021/01/09 13:33:33;;;;;;;16.80;10.38;;;;;;;3.14;67.08;100640.02;2134174;80;28510;-64
2021/01/09 13:36:39;;;;;;;13.60;9.50;;;;;;;3.11;67.12;100646.67;2078839;81;30954;-64
2021/01/09 13:39:42;;;;;;;13.55;9.18;;;;;;;3.07;67.05;100648.92;2133022;80;33178;-65
2021/01/09 13:42:47;;;;;;;14.03;9.68;;;;;;;3.04;67.09;100652.06;2132012;81;29266;-64
2021/01/09 13:45:51;;;;;;;12.58;9.20;;;;;;;3.01;67.25;100661.36;2137509;80;28268;-65
2021/01/09 13:48:53;;;;;;;14.55;9.05;;;;;;;2.97;67.23;100654.81;2101676;80;28841;-65
2021/01/09 13:51:55;;;;;;;14.40;9.95;;;;;;;2.93;67.35;100658.38;2150443;80;31215;-66
2021/01/09 13:54:59;;;;;;;15.75;9.98;;;;;;;2.91;67.45;100665.45;2134721;80;33108;-64
2021/01/09 13:58:02;;;;;;;22.02;12.55;;;;;;;2.89;67.35;100667.67;2135429;81;29738;-65
2021/01/09 14:01:04;;;;;;;14.75;10.82;;;;;;;2.87;67.64;100664.63;2153709;80;27829;-64
2021/01/09 14:04:07;;;;;;;13.18;9.15;;;;;;;2.85;67.58;100673.89;2137646;81;28829;-64
2021/01/09 14:07:10;;;;;;;16.07;10.38;;;;;;;2.81;67.52;100681.45;2136854;80;31162;-64
2021/01/09 14:10:15;;;;;;;13.93;9.73;;;;;;;2.78;67.53;100679.27;2144041;80;33087;-64
2021/01/09 14:13:38;;;;;;;15.08;9.43;;;;;;;2.74;67.73;100681.08;2144876;80;29684;-65